Zachery Reinauer — WCU4692 — position and weather

sailwx.info

Track history (hours):
 
Tides and Currents Weather Stations Pressure Air Temp Water Temp Dewpoint Dewpoint Depression Visibility Wind Speed Wind Dir Waves Ship Positions

Zachery Reinauer

Owner: REINAUER TRANSPORTATION CO.,LLC, STATEN ISLAND, NY. More information available from US FCC via Universal Licensing System and Coast Guard Vessel Documentation Center.

Last reported at 2017-Dec-08 14:18 UTC. Time now 2017-Dec-17 19:51 UTC.
Position N 40°38' W 074°08'.
Warning: this ship's position is 9 days out of date.

Length 30 m; draft 4.4 m.

Type: Tug. MMSI: 366695940.

Date/timePositionNaut miles runAvg speedWind from/ knotsBaromVisibWave heightAir tempDewpointWater temp
2017-Dec-08 14:18N 40°38' W 074°08'1 2.8
2017-Dec-08 14:00N 40°39' W 074°09'3 6.6
2017-Dec-08 13:29N 40°36' W 074°12'4 1.8
2017-Dec-08 11:21N 40°33' W 074°15'1 0.7
2017-Dec-08 10:28N 40°32' W 074°15'0 0.5
2017-Dec-08 09:59N 40°32' W 074°15'0 0.0
2017-Dec-08 09:29N 40°32' W 074°15'0 0.0
2017-Dec-08 09:00N 40°32' W 074°15'0 0.0
2017-Dec-08 08:18N 40°32' W 074°15'0 0.0
2017-Dec-08 07:50N 40°32' W 074°15'1 3.4
2017-Dec-08 07:30N 40°33' W 074°15'4 9.0
2017-Dec-08 07:00N 40°37' W 074°12'0 0.2
2017-Dec-08 06:30N 40°38' W 074°12'0 0.3
2017-Dec-08 05:59N 40°38' W 074°12'3 7.0
2017-Dec-08 05:30N 40°39' W 074°08'0 0.4
2017-Dec-08 04:57N 40°38' W 074°08'0 0.0
2017-Dec-08 04:31N 40°38' W 074°08'0 0.1
2017-Dec-08 04:00N 40°38' W 074°08'0 0.1
2017-Dec-08 03:31N 40°38' W 074°08'0 0.0
2017-Dec-08 03:00N 40°38' W 074°08'0 0.0
2017-Dec-08 02:30N 40°38' W 074°08'0 0.0
2017-Dec-08 02:00N 40°38' W 074°08'0 0.0
2017-Dec-08 01:30N 40°38' W 074°08'0 0.0
2017-Dec-08 01:00N 40°38' W 074°08'0 0.0
2017-Dec-08 00:31N 40°38' W 074°08'0 0.0
2017-Dec-07 23:59N 40°38' W 074°08'0 0.0
2017-Dec-07 23:30N 40°38' W 074°08'0 0.0
2017-Dec-07 23:00N 40°38' W 074°08'0 0.0
2017-Dec-07 22:30N 40°38' W 074°08'0 0.0
2017-Dec-07 22:00N 40°38' W 074°08'0 0.0
2017-Dec-07 21:30N 40°38' W 074°08'0 0.0
2017-Dec-07 20:59N 40°38' W 074°08'0 0.0
2017-Dec-07 20:30N 40°38' W 074°08'0 0.0
2017-Dec-07 19:58N 40°38' W 074°08'0 0.0
2017-Dec-07 19:30N 40°38' W 074°08'0 0.0
2017-Dec-07 18:59N 40°38' W 074°08'0 0.0
2017-Dec-07 18:30N 40°38' W 074°08'0 0.0
2017-Dec-07 17:57N 40°38' W 074°08'0 0.0
2017-Dec-07 17:28N 40°38' W 074°08'0 0.0
2017-Dec-07 16:59N 40°38' W 074°08'0 0.0
2017-Dec-07 16:30N 40°38' W 074°08'0 0.0
2017-Dec-07 15:59N 40°38' W 074°08'0 0.0
2017-Dec-07 15:25N 40°38' W 074°08'0 0.0
2017-Dec-07 15:00N 40°38' W 074°08'0 0.0
2017-Dec-07 14:22N 40°38' W 074°08'0 0.0
2017-Dec-07 13:57N 40°38' W 074°08'0 0.0
2017-Dec-07 13:30N 40°38' W 074°08'0 0.0
2017-Dec-07 13:00N 40°38' W 074°08'0 0.0
2017-Dec-07 12:29N 40°38' W 074°08'0 0.0
2017-Dec-07 11:58N 40°38' W 074°08'0 0.0
2017-Dec-07 11:29N 40°38' W 074°08'0 0.0
2017-Dec-07 11:00N 40°38' W 074°08'0 0.0
2017-Dec-07 10:30N 40°38' W 074°08'0 0.0
2017-Dec-07 10:01N 40°38' W 074°08'0 0.0
2017-Dec-07 09:30N 40°38' W 074°08'0 0.0
2017-Dec-07 09:00N 40°38' W 074°08'0 0.0
2017-Dec-07 08:30N 40°38' W 074°08'0 0.0
2017-Dec-07 08:00N 40°38' W 074°08'0 0.0
2017-Dec-07 07:30N 40°38' W 074°08'0 0.0
2017-Dec-07 07:00N 40°38' W 074°08'0 0.0
2017-Dec-07 06:30N 40°38' W 074°08'0 0.0
2017-Dec-07 05:59N 40°38' W 074°08'0 0.0
2017-Dec-07 05:30N 40°38' W 074°08'0 0.0
2017-Dec-07 05:00N 40°38' W 074°08'0 0.0
2017-Dec-07 04:29N 40°38' W 074°08'0 0.0
2017-Dec-07 03:57N 40°38' W 074°08'0 0.0
2017-Dec-07 03:29N 40°38' W 074°08'0 0.0
2017-Dec-07 03:00N 40°38' W 074°08'0 0.0
2017-Dec-07 02:24N 40°38' W 074°08'0 0.0
2017-Dec-07 01:59N 40°38' W 074°08'0 0.0
2017-Dec-07 01:29N 40°38' W 074°08'0 0.0
2017-Dec-07 01:00N 40°38' W 074°08'0 0.0
2017-Dec-07 00:28N 40°38' W 074°08'0 0.0
2017-Dec-07 00:00N 40°38' W 074°08'0 0.0
2017-Dec-06 23:28N 40°38' W 074°08'0 0.0
2017-Dec-06 23:01N 40°38' W 074°08'0 0.0
2017-Dec-06 22:29N 40°38' W 074°08'0 0.0
2017-Dec-06 21:57N 40°38' W 074°08'0 0.2
2017-Dec-06 21:30N 40°39' W 074°08'0 0.3
2017-Dec-06 21:00N 40°38' W 074°08'  
2017-Dec-04 10:28N 40°36' W 074°12'4 8.1
2017-Dec-04 10:01N 40°39' W 074°10'2 3.4
2017-Dec-04 09:30N 40°38' W 074°08'1 1.4
2017-Dec-04 09:00N 40°39' W 074°07'0 0.0
2017-Dec-04 08:30N 40°39' W 074°07'0 0.7
2017-Dec-04 08:01N 40°39' W 074°07'0 0.0
2017-Dec-04 07:30N 40°39' W 074°07'0 0.3
2017-Dec-04 07:01N 40°39' W 074°06'1 1.0
2017-Dec-04 06:30N 40°39' W 074°07'4 7.4
2017-Dec-04 06:00N 40°38' W 074°12'2 4.5
2017-Dec-04 05:29N 40°36' W 074°12'0 0.0
2017-Dec-04 04:59N 40°36' W 074°12'0 0.0
2017-Dec-04 04:30N 40°36' W 074°12'0 0.0
2017-Dec-04 04:00N 40°36' W 074°12'1 1.2
2017-Dec-04 03:27N 40°35' W 074°13'0 0.5
2017-Dec-04 03:00N 40°35' W 074°13'3 5.6
2017-Dec-04 02:28N 40°38' W 074°12'3 6.5
2017-Dec-04 02:00N 40°39' W 074°08'4 8.1
2017-Dec-04 01:30N 40°40' W 074°03'1 2.9
2017-Dec-04 01:01N 40°41' W 074°03'0 0.0
2017-Dec-04 00:31N 40°41' W 074°03'0 0.0
2017-Dec-04 00:01N 40°41' W 074°03'0 0.0
2017-Dec-03 23:31N 40°41' W 074°03'0 0.1
2017-Dec-03 23:01N 40°41' W 074°03'0 0.0
2017-Dec-03 22:30N 40°41' W 074°03'0 0.1
2017-Dec-03 22:01N 40°41' W 074°03'0 0.2
2017-Dec-03 21:30N 40°41' W 074°03'1 1.9
2017-Dec-03 21:01N 40°42' W 074°02'612.0
2017-Dec-03 20:30N 40°48' W 073°59'713.1
2017-Dec-03 20:00N 40°53' W 073°56'5 0.3
2017-Dec-03 02:40N 40°59' W 073°54'2 9.5
2017-Dec-03 02:28N 40°57' W 073°54'5 9.6
2017-Dec-03 02:00N 40°52' W 073°56'510.0
2017-Dec-03 01:31N 40°48' W 073°59'510.0
2017-Dec-03 01:01N 40°43' W 074°01'5 9.3
2017-Dec-03 00:30N 40°39' W 074°04'2 4.4
2017-Dec-03 00:01N 40°39' W 074°07'0 0.2
2017-Dec-02 23:30N 40°39' W 074°07'1 2.0
2017-Dec-02 23:01N 40°38' W 074°08'0 0.0
2017-Dec-02 22:30N 40°38' W 074°08'0 0.0
2017-Dec-02 22:00N 40°38' W 074°08'0 0.0
2017-Dec-02 21:29N 40°38' W 074°08'0 0.0
2017-Dec-02 21:00N 40°38' W 074°08'0 0.0
2017-Dec-02 20:29N 40°38' W 074°08'0 0.0
2017-Dec-02 19:59N 40°38' W 074°08'0 0.0
2017-Dec-02 19:29N 40°38' W 074°08'0 0.0
2017-Dec-02 19:00N 40°38' W 074°08'0 0.0
2017-Dec-02 18:29N 40°38' W 074°08'0 0.0
2017-Dec-02 18:00N 40°38' W 074°08'0 0.0
2017-Dec-02 17:30N 40°38' W 074°08'0 0.0
2017-Dec-02 17:00N 40°38' W 074°08'0 0.0
2017-Dec-02 16:28N 40°38' W 074°08'0 0.0
2017-Dec-02 15:59N 40°38' W 074°08'0 0.0
2017-Dec-02 15:29N 40°38' W 074°08'0 0.0
2017-Dec-02 15:00N 40°38' W 074°08'0 0.0
2017-Dec-02 14:30N 40°38' W 074°08'0 0.0
2017-Dec-02 14:00N 40°38' W 074°08'0 0.0
2017-Dec-02 13:30N 40°38' W 074°08'0 0.0
2017-Dec-02 13:01N 40°38' W 074°08'1 1.4
2017-Dec-02 12:30N 40°39' W 074°07'0 0.8
2017-Dec-02 12:01N 40°39' W 074°06'3 6.4
2017-Dec-02 11:30N 40°40' W 074°03'1 1.2
2017-Dec-02 11:00N 40°41' W 074°03'0 0.0
2017-Dec-02 10:31N 40°41' W 074°03'0 0.0
2017-Dec-02 10:01N 40°41' W 074°03'0 0.1
2017-Dec-02 09:30N 40°41' W 074°03'0 0.1
2017-Dec-02 09:01N 40°41' W 074°03'0 0.1
2017-Dec-02 08:31N 40°41' W 074°03'0 0.0
2017-Dec-02 08:01N 40°41' W 074°03'0 0.0
2017-Dec-02 07:31N 40°41' W 074°03'1 3.0
2017-Dec-02 07:01N 40°40' W 074°01'0 0.6
2017-Dec-02 06:31N 40°40' W 074°01'3 5.5
2017-Dec-02 06:00N 40°42' W 073°59'510.1
2017-Dec-02 05:30N 40°47' W 073°55'5 9.1
2017-Dec-02 05:00N 40°48' W 073°50'5 8.9
2017-Dec-02 04:27N 40°52' W 073°45'4 0.2
2017-Dec-01 06:55N 40°48' W 073°47'4 9.2
2017-Dec-01 06:29N 40°48' W 073°52'3 6.5
2017-Dec-01 06:00N 40°47' W 073°56'3 5.9
2017-Dec-01 05:31N 40°44' W 073°58'3 5.9
2017-Dec-01 05:01N 40°42' W 074°00'3 5.0
2017-Dec-01 04:31N 40°40' W 074°02'1 2.4
2017-Dec-01 04:01N 40°39' W 074°04'3 6.9
2017-Dec-01 03:31N 40°39' W 074°08'3 5.9
2017-Dec-01 03:00N 40°38' W 074°12'3 4.9
2017-Dec-01 02:30N 40°36' W 074°12'2 5.0
2017-Dec-01 02:01N 40°33' W 074°14'1 1.8
2017-Dec-01 01:29N 40°33' W 074°15'0 0.0
2017-Dec-01 01:00N 40°33' W 074°15'0 0.0
2017-Dec-01 00:29N 40°33' W 074°15'0 0.0
2017-Dec-01 00:00N 40°33' W 074°15'0 0.0
2017-Nov-30 23:29N 40°33' W 074°15'0 0.0
2017-Nov-30 23:00N 40°33' W 074°15'0 0.0
2017-Nov-30 22:30N 40°33' W 074°15'0 0.0
2017-Nov-30 18:06N 40°33' W 074°15'0 0.9
2017-Nov-30 17:36N 40°32' W 074°15'1 8.6
2017-Nov-30 17:28N 40°33' W 074°14'3 4.6
2017-Nov-30 16:54N 40°35' W 074°12'0 0.4
2017-Nov-30 16:28N 40°36' W 074°12'0 0.1
2017-Nov-30 15:44N 40°36' W 074°12'0 0.0
2017-Nov-30 15:22N 40°36' W 074°12'3 7.7
2017-Nov-30 14:59N 40°33' W 074°14'1 1.3
2017-Nov-30 14:30N 40°33' W 074°15'1 1.4
2017-Nov-30 13:58N 40°33' W 074°14'4 7.8
2017-Nov-30 13:30N 40°37' W 074°12'3 6.5
2017-Nov-30 13:00N 40°39' W 074°09'4 8.1
2017-Nov-30 12:30N 40°39' W 074°03'2 4.5
2017-Nov-30 12:01N 40°40' W 074°01'0 0.0
2017-Nov-30 11:30N 40°40' W 074°01'0 0.3
2017-Nov-30 11:00N 40°40' W 074°01'0 0.0
2017-Nov-30 10:30N 40°40' W 074°01'0 0.0
2017-Nov-30 10:01N 40°40' W 074°01'0 0.0
2017-Nov-30 09:30N 40°40' W 074°01'0 0.0
2017-Nov-30 09:00N 40°40' W 074°01'0 0.0
2017-Nov-30 08:30N 40°40' W 074°01'0 0.0
2017-Nov-30 08:00N 40°40' W 074°01'2 3.6
2017-Nov-30 07:30N 40°39' W 074°03'4 7.9
2017-Nov-30 07:00N 40°39' W 074°08'3 6.4
2017-Nov-30 06:30N 40°38' W 074°12'0 0.2
2017-Nov-30 06:00N 40°38' W 074°12'0 0.1
2017-Nov-30 05:30N 40°38' W 074°12'0 0.0
2017-Nov-30 05:00N 40°38' W 074°12'0 0.0
2017-Nov-30 04:30N 40°38' W 074°12'2 3.9
2017-Nov-30 03:59N 40°36' W 074°12'4 6.9
2017-Nov-30 03:29N 40°33' W 074°15'0 0.7
2017-Nov-30 03:00N 40°33' W 074°15'1 2.4
2017-Nov-30 02:28N 40°33' W 074°14'3 5.8
2017-Nov-30 01:57N 40°36' W 074°12'3 7.4
2017-Nov-30 01:30N 40°39' W 074°09'1 1.7
2017-Nov-30 00:44N 40°38' W 074°08'0 0.0
2017-Nov-30 00:30N 40°38' W 074°08'0 0.0
2017-Nov-29 23:58N 40°38' W 074°08'0 0.0
2017-Nov-29 23:27N 40°38' W 074°08'0 0.0
2017-Nov-29 22:17N 40°38' W 074°08'0 0.0
2017-Nov-29 21:58N 40°38' W 074°08'0 0.0
2017-Nov-29 21:18N 40°38' W 074°08'0 0.0
2017-Nov-29 20:58N 40°38' W 074°08'0 0.0
2017-Nov-29 20:28N 40°38' W 074°08'0 0.0
2017-Nov-29 18:15N 40°38' W 074°08'0 0.0
2017-Nov-29 17:59N 40°38' W 074°08'0 0.0
2017-Nov-29 17:28N 40°38' W 074°08'0 0.0
2017-Nov-29 17:00N 40°38' W 074°08'0 0.0
2017-Nov-29 15:50N 40°38' W 074°08'0 0.0
2017-Nov-29 15:27N 40°38' W 074°08'0 0.0
2017-Nov-29 14:16N 40°38' W 074°08'0 0.0
2017-Nov-29 14:00N 40°38' W 074°08'0 0.0
2017-Nov-29 13:08N 40°38' W 074°08'0 0.1
2017-Nov-29 12:58N 40°38' W 074°08'0 0.0
2017-Nov-29 12:25N 40°38' W 074°08'0 0.0
2017-Nov-29 11:59N 40°38' W 074°08'2 4.5
2017-Nov-29 11:30N 40°39' W 074°11'1 1.5
2017-Nov-29 11:00N 40°38' W 074°11'1 2.0
2017-Nov-29 10:30N 40°39' W 074°10'3 5.4
2017-Nov-29 10:00N 40°39' W 074°07'1 1.6
2017-Nov-29 09:30N 40°38' W 074°08'0 0.0
2017-Nov-29 09:01N 40°38' W 074°08'0 0.0
2017-Nov-29 08:30N 40°38' W 074°08'0 0.0
2017-Nov-29 07:59N 40°38' W 074°08'0 0.0
2017-Nov-29 07:30N 40°38' W 074°08'0 0.0
2017-Nov-29 07:00N 40°38' W 074°08'0 0.0
2017-Nov-29 06:29N 40°38' W 074°08'0 0.0
2017-Nov-29 06:00N 40°38' W 074°08'0 0.0
2017-Nov-29 05:30N 40°38' W 074°08'0 0.0
2017-Nov-29 05:00N 40°38' W 074°08'0 0.0
2017-Nov-29 04:30N 40°38' W 074°08'0 0.0
2017-Nov-29 04:00N 40°38' W 074°08'0 0.0
2017-Nov-29 03:30N 40°38' W 074°08'0 0.1
2017-Nov-29 03:00N 40°38' W 074°08'0 0.1
2017-Nov-29 02:30N 40°39' W 074°08'0 0.2
2017-Nov-29 02:00N 40°38' W 074°08'0 0.0
2017-Nov-29 01:31N 40°38' W 074°08'0 0.0
2017-Nov-29 01:00N 40°38' W 074°08'0 0.0
2017-Nov-29 00:29N 40°38' W 074°08'0 0.0
2017-Nov-28 23:59N 40°38' W 074°08'0 0.0
2017-Nov-28 23:30N 40°38' W 074°08'0 0.0
2017-Nov-28 23:00N 40°38' W 074°08'0 0.0
2017-Nov-28 22:30N 40°38' W 074°08'0 0.0
2017-Nov-28 22:00N 40°38' W 074°08'0 0.0
2017-Nov-28 21:30N 40°38' W 074°08'0 0.0
2017-Nov-28 20:56N 40°38' W 074°08'0 0.0
2017-Nov-28 20:30N 40°38' W 074°08'0 0.0
2017-Nov-28 20:00N 40°38' W 074°08'0 0.0
2017-Nov-28 19:30N 40°38' W 074°08'0 0.0
2017-Nov-28 19:00N 40°38' W 074°08'0 0.0
2017-Nov-28 18:31N 40°38' W 074°08'4 7.5
2017-Nov-28 18:00N 40°40' W 074°03'2 3.3
2017-Nov-28 17:30N 40°40' W 074°01'1 1.8
2017-Nov-28 17:00N 40°41' W 074°01'5 9.5
2017-Nov-28 16:31N 40°45' W 073°58'4 7.5
2017-Nov-28 15:58N 40°48' W 073°54'5 5.7
2017-Nov-28 15:00N 40°43' W 073°58'4 7.6
2017-Nov-28 14:30N 40°41' W 074°01'  
Track history (hours):
 
Tides and Currents Weather Stations Pressure Air Temp Water Temp Dewpoint Dewpoint Depression Visibility Wind Speed Wind Dir Waves Ship Positions

Zachery Reinauer

Owner: REINAUER TRANSPORTATION CO.,LLC, STATEN ISLAND, NY. More information available from US FCC via Universal Licensing System and Coast Guard Vessel Documentation Center.

Last reported at 2017-Dec-08 14:18 UTC. Time now 2017-Dec-17 19:51 UTC.
Position N 40°38' W 074°08'.
Warning: this ship's position is 9 days out of date.

Length 30 m; draft 4.4 m.

Type: Tug. MMSI: 366695940.

Date/timePositionNaut miles runAvg speedWind from/ knotsBaromVisibWave heightAir tempDewpointWater temp
2017-Dec-08 14:18N 40°38' W 074°08'1 2.8
2017-Dec-08 14:00N 40°39' W 074°09'3 6.6
2017-Dec-08 13:29N 40°36' W 074°12'4 1.8
2017-Dec-08 11:21N 40°33' W 074°15'1 0.7
2017-Dec-08 10:28N 40°32' W 074°15'0 0.5
2017-Dec-08 09:59N 40°32' W 074°15'0 0.0
2017-Dec-08 09:29N 40°32' W 074°15'0 0.0
2017-Dec-08 09:00N 40°32' W 074°15'0 0.0
2017-Dec-08 08:18N 40°32' W 074°15'0 0.0
2017-Dec-08 07:50N 40°32' W 074°15'1 3.4
2017-Dec-08 07:30N 40°33' W 074°15'4 9.0
2017-Dec-08 07:00N 40°37' W 074°12'0 0.2
2017-Dec-08 06:30N 40°38' W 074°12'0 0.3
2017-Dec-08 05:59N 40°38' W 074°12'3 7.0
2017-Dec-08 05:30N 40°39' W 074°08'0 0.4
2017-Dec-08 04:57N 40°38' W 074°08'0 0.0
2017-Dec-08 04:31N 40°38' W 074°08'0 0.1
2017-Dec-08 04:00N 40°38' W 074°08'0 0.1
2017-Dec-08 03:31N 40°38' W 074°08'0 0.0
2017-Dec-08 03:00N 40°38' W 074°08'0 0.0
2017-Dec-08 02:30N 40°38' W 074°08'0 0.0
2017-Dec-08 02:00N 40°38' W 074°08'0 0.0
2017-Dec-08 01:30N 40°38' W 074°08'0 0.0
2017-Dec-08 01:00N 40°38' W 074°08'0 0.0
2017-Dec-08 00:31N 40°38' W 074°08'0 0.0
2017-Dec-07 23:59N 40°38' W 074°08'0 0.0
2017-Dec-07 23:30N 40°38' W 074°08'0 0.0
2017-Dec-07 23:00N 40°38' W 074°08'0 0.0
2017-Dec-07 22:30N 40°38' W 074°08'0 0.0
2017-Dec-07 22:00N 40°38' W 074°08'0 0.0
2017-Dec-07 21:30N 40°38' W 074°08'0 0.0
2017-Dec-07 20:59N 40°38' W 074°08'0 0.0
2017-Dec-07 20:30N 40°38' W 074°08'0 0.0
2017-Dec-07 19:58N 40°38' W 074°08'0 0.0
2017-Dec-07 19:30N 40°38' W 074°08'0 0.0
2017-Dec-07 18:59N 40°38' W 074°08'0 0.0
2017-Dec-07 18:30N 40°38' W 074°08'0 0.0
2017-Dec-07 17:57N 40°38' W 074°08'0 0.0
2017-Dec-07 17:28N 40°38' W 074°08'0 0.0
2017-Dec-07 16:59N 40°38' W 074°08'0 0.0
2017-Dec-07 16:30N 40°38' W 074°08'0 0.0
2017-Dec-07 15:59N 40°38' W 074°08'0 0.0
2017-Dec-07 15:25N 40°38' W 074°08'0 0.0
2017-Dec-07 15:00N 40°38' W 074°08'0 0.0
2017-Dec-07 14:22N 40°38' W 074°08'0 0.0
2017-Dec-07 13:57N 40°38' W 074°08'0 0.0
2017-Dec-07 13:30N 40°38' W 074°08'0 0.0
2017-Dec-07 13:00N 40°38' W 074°08'0 0.0
2017-Dec-07 12:29N 40°38' W 074°08'0 0.0
2017-Dec-07 11:58N 40°38' W 074°08'0 0.0
2017-Dec-07 11:29N 40°38' W 074°08'0 0.0
2017-Dec-07 11:00N 40°38' W 074°08'0 0.0
2017-Dec-07 10:30N 40°38' W 074°08'0 0.0
2017-Dec-07 10:01N 40°38' W 074°08'0 0.0
2017-Dec-07 09:30N 40°38' W 074°08'0 0.0
2017-Dec-07 09:00N 40°38' W 074°08'0 0.0
2017-Dec-07 08:30N 40°38' W 074°08'0 0.0
2017-Dec-07 08:00N 40°38' W 074°08'0 0.0
2017-Dec-07 07:30N 40°38' W 074°08'0 0.0
2017-Dec-07 07:00N 40°38' W 074°08'0 0.0
2017-Dec-07 06:30N 40°38' W 074°08'0 0.0
2017-Dec-07 05:59N 40°38' W 074°08'0 0.0
2017-Dec-07 05:30N 40°38' W 074°08'0 0.0
2017-Dec-07 05:00N 40°38' W 074°08'0 0.0
2017-Dec-07 04:29N 40°38' W 074°08'0 0.0
2017-Dec-07 03:57N 40°38' W 074°08'0 0.0
2017-Dec-07 03:29N 40°38' W 074°08'0 0.0
2017-Dec-07 03:00N 40°38' W 074°08'0 0.0
2017-Dec-07 02:24N 40°38' W 074°08'0 0.0
2017-Dec-07 01:59N 40°38' W 074°08'0 0.0
2017-Dec-07 01:29N 40°38' W 074°08'0 0.0
2017-Dec-07 01:00N 40°38' W 074°08'0 0.0
2017-Dec-07 00:28N 40°38' W 074°08'0 0.0
2017-Dec-07 00:00N 40°38' W 074°08'0 0.0
2017-Dec-06 23:28N 40°38' W 074°08'0 0.0
2017-Dec-06 23:01N 40°38' W 074°08'0 0.0
2017-Dec-06 22:29N 40°38' W 074°08'0 0.0
2017-Dec-06 21:57N 40°38' W 074°08'0 0.2
2017-Dec-06 21:30N 40°39' W 074°08'0 0.3
2017-Dec-06 21:00N 40°38' W 074°08'  
2017-Dec-04 10:28N 40°36' W 074°12'4 8.1
2017-Dec-04 10:01N 40°39' W 074°10'2 3.4
2017-Dec-04 09:30N 40°38' W 074°08'1 1.4
2017-Dec-04 09:00N 40°39' W 074°07'0 0.0
2017-Dec-04 08:30N 40°39' W 074°07'0 0.7
2017-Dec-04 08:01N 40°39' W 074°07'0 0.0
2017-Dec-04 07:30N 40°39' W 074°07'0 0.3
2017-Dec-04 07:01N 40°39' W 074°06'1 1.0
2017-Dec-04 06:30N 40°39' W 074°07'4 7.4
2017-Dec-04 06:00N 40°38' W 074°12'2 4.5
2017-Dec-04 05:29N 40°36' W 074°12'0 0.0
2017-Dec-04 04:59N 40°36' W 074°12'0 0.0
2017-Dec-04 04:30N 40°36' W 074°12'0 0.0
2017-Dec-04 04:00N 40°36' W 074°12'1 1.2
2017-Dec-04 03:27N 40°35' W 074°13'0 0.5
2017-Dec-04 03:00N 40°35' W 074°13'3 5.6
2017-Dec-04 02:28N 40°38' W 074°12'3 6.5
2017-Dec-04 02:00N 40°39' W 074°08'4 8.1
2017-Dec-04 01:30N 40°40' W 074°03'1 2.9
2017-Dec-04 01:01N 40°41' W 074°03'0 0.0
2017-Dec-04 00:31N 40°41' W 074°03'0 0.0
2017-Dec-04 00:01N 40°41' W 074°03'0 0.0
2017-Dec-03 23:31N 40°41' W 074°03'0 0.1
2017-Dec-03 23:01N 40°41' W 074°03'0 0.0
2017-Dec-03 22:30N 40°41' W 074°03'0 0.1
2017-Dec-03 22:01N 40°41' W 074°03'0 0.2
2017-Dec-03 21:30N 40°41' W 074°03'1 1.9
2017-Dec-03 21:01N 40°42' W 074°02'612.0
2017-Dec-03 20:30N 40°48' W 073°59'713.1
2017-Dec-03 20:00N 40°53' W 073°56'5 0.3
2017-Dec-03 02:40N 40°59' W 073°54'2 9.5
2017-Dec-03 02:28N 40°57' W 073°54'5 9.6
2017-Dec-03 02:00N 40°52' W 073°56'510.0
2017-Dec-03 01:31N 40°48' W 073°59'510.0
2017-Dec-03 01:01N 40°43' W 074°01'5 9.3
2017-Dec-03 00:30N 40°39' W 074°04'2 4.4
2017-Dec-03 00:01N 40°39' W 074°07'0 0.2
2017-Dec-02 23:30N 40°39' W 074°07'1 2.0
2017-Dec-02 23:01N 40°38' W 074°08'0 0.0
2017-Dec-02 22:30N 40°38' W 074°08'0 0.0
2017-Dec-02 22:00N 40°38' W 074°08'0 0.0
2017-Dec-02 21:29N 40°38' W 074°08'0 0.0
2017-Dec-02 21:00N 40°38' W 074°08'0 0.0
2017-Dec-02 20:29N 40°38' W 074°08'0 0.0
2017-Dec-02 19:59N 40°38' W 074°08'0 0.0
2017-Dec-02 19:29N 40°38' W 074°08'0 0.0
2017-Dec-02 19:00N 40°38' W 074°08'0 0.0
2017-Dec-02 18:29N 40°38' W 074°08'0 0.0
2017-Dec-02 18:00N 40°38' W 074°08'0 0.0
2017-Dec-02 17:30N 40°38' W 074°08'0 0.0
2017-Dec-02 17:00N 40°38' W 074°08'0 0.0
2017-Dec-02 16:28N 40°38' W 074°08'0 0.0
2017-Dec-02 15:59N 40°38' W 074°08'0 0.0
2017-Dec-02 15:29N 40°38' W 074°08'0 0.0
2017-Dec-02 15:00N 40°38' W 074°08'0 0.0
2017-Dec-02 14:30N 40°38' W 074°08'0 0.0
2017-Dec-02 14:00N 40°38' W 074°08'0 0.0
2017-Dec-02 13:30N 40°38' W 074°08'0 0.0
2017-Dec-02 13:01N 40°38' W 074°08'1 1.4
2017-Dec-02 12:30N 40°39' W 074°07'0 0.8
2017-Dec-02 12:01N 40°39' W 074°06'3 6.4
2017-Dec-02 11:30N 40°40' W 074°03'1 1.2
2017-Dec-02 11:00N 40°41' W 074°03'0 0.0
2017-Dec-02 10:31N 40°41' W 074°03'0 0.0
2017-Dec-02 10:01N 40°41' W 074°03'0 0.1
2017-Dec-02 09:30N 40°41' W 074°03'0 0.1
2017-Dec-02 09:01N 40°41' W 074°03'0 0.1
2017-Dec-02 08:31N 40°41' W 074°03'0 0.0
2017-Dec-02 08:01N 40°41' W 074°03'0 0.0
2017-Dec-02 07:31N 40°41' W 074°03'1 3.0
2017-Dec-02 07:01N 40°40' W 074°01'0 0.6
2017-Dec-02 06:31N 40°40' W 074°01'3 5.5
2017-Dec-02 06:00N 40°42' W 073°59'510.1
2017-Dec-02 05:30N 40°47' W 073°55'5 9.1
2017-Dec-02 05:00N 40°48' W 073°50'5 8.9
2017-Dec-02 04:27N 40°52' W 073°45'4 0.2
2017-Dec-01 06:55N 40°48' W 073°47'4 9.2
2017-Dec-01 06:29N 40°48' W 073°52'3 6.5
2017-Dec-01 06:00N 40°47' W 073°56'3 5.9
2017-Dec-01 05:31N 40°44' W 073°58'3 5.9
2017-Dec-01 05:01N 40°42' W 074°00'3 5.0
2017-Dec-01 04:31N 40°40' W 074°02'1 2.4
2017-Dec-01 04:01N 40°39' W 074°04'3 6.9
2017-Dec-01 03:31N 40°39' W 074°08'3 5.9
2017-Dec-01 03:00N 40°38' W 074°12'3 4.9
2017-Dec-01 02:30N 40°36' W 074°12'2 5.0
2017-Dec-01 02:01N 40°33' W 074°14'1 1.8
2017-Dec-01 01:29N 40°33' W 074°15'0 0.0
2017-Dec-01 01:00N 40°33' W 074°15'0 0.0
2017-Dec-01 00:29N 40°33' W 074°15'0 0.0
2017-Dec-01 00:00N 40°33' W 074°15'0 0.0
2017-Nov-30 23:29N 40°33' W 074°15'0 0.0
2017-Nov-30 23:00N 40°33' W 074°15'0 0.0
2017-Nov-30 22:30N 40°33' W 074°15'0 0.0
2017-Nov-30 18:06N 40°33' W 074°15'0 0.9
2017-Nov-30 17:36N 40°32' W 074°15'1 8.6
2017-Nov-30 17:28N 40°33' W 074°14'3 4.6
2017-Nov-30 16:54N 40°35' W 074°12'0 0.4
2017-Nov-30 16:28N 40°36' W 074°12'0 0.1
2017-Nov-30 15:44N 40°36' W 074°12'0 0.0
2017-Nov-30 15:22N 40°36' W 074°12'3 7.7
2017-Nov-30 14:59N 40°33' W 074°14'1 1.3
2017-Nov-30 14:30N 40°33' W 074°15'1 1.4
2017-Nov-30 13:58N 40°33' W 074°14'4 7.8
2017-Nov-30 13:30N 40°37' W 074°12'3 6.5
2017-Nov-30 13:00N 40°39' W 074°09'4 8.1
2017-Nov-30 12:30N 40°39' W 074°03'2 4.5
2017-Nov-30 12:01N 40°40' W 074°01'0 0.0
2017-Nov-30 11:30N 40°40' W 074°01'0 0.3
2017-Nov-30 11:00N 40°40' W 074°01'0 0.0
2017-Nov-30 10:30N 40°40' W 074°01'0 0.0
2017-Nov-30 10:01N 40°40' W 074°01'0 0.0
2017-Nov-30 09:30N 40°40' W 074°01'0 0.0
2017-Nov-30 09:00N 40°40' W 074°01'0 0.0
2017-Nov-30 08:30N 40°40' W 074°01'0 0.0
2017-Nov-30 08:00N 40°40' W 074°01'2 3.6
2017-Nov-30 07:30N 40°39' W 074°03'4 7.9
2017-Nov-30 07:00N 40°39' W 074°08'3 6.4
2017-Nov-30 06:30N 40°38' W 074°12'0 0.2
2017-Nov-30 06:00N 40°38' W 074°12'0 0.1
2017-Nov-30 05:30N 40°38' W 074°12'0 0.0
2017-Nov-30 05:00N 40°38' W 074°12'0 0.0
2017-Nov-30 04:30N 40°38' W 074°12'2 3.9
2017-Nov-30 03:59N 40°36' W 074°12'4 6.9
2017-Nov-30 03:29N 40°33' W 074°15'0 0.7
2017-Nov-30 03:00N 40°33' W 074°15'1 2.4
2017-Nov-30 02:28N 40°33' W 074°14'3 5.8
2017-Nov-30 01:57N 40°36' W 074°12'3 7.4
2017-Nov-30 01:30N 40°39' W 074°09'1 1.7
2017-Nov-30 00:44N 40°38' W 074°08'0 0.0
2017-Nov-30 00:30N 40°38' W 074°08'0 0.0
2017-Nov-29 23:58N 40°38' W 074°08'0 0.0
2017-Nov-29 23:27N 40°38' W 074°08'0 0.0
2017-Nov-29 22:17N 40°38' W 074°08'0 0.0
2017-Nov-29 21:58N 40°38' W 074°08'0 0.0
2017-Nov-29 21:18N 40°38' W 074°08'0 0.0
2017-Nov-29 20:58N 40°38' W 074°08'0 0.0
2017-Nov-29 20:28N 40°38' W 074°08'0 0.0
2017-Nov-29 18:15N 40°38' W 074°08'0 0.0
2017-Nov-29 17:59N 40°38' W 074°08'0 0.0
2017-Nov-29 17:28N 40°38' W 074°08'0 0.0
2017-Nov-29 17:00N 40°38' W 074°08'0 0.0
2017-Nov-29 15:50N 40°38' W 074°08'0 0.0
2017-Nov-29 15:27N 40°38' W 074°08'0 0.0
2017-Nov-29 14:16N 40°38' W 074°08'0 0.0
2017-Nov-29 14:00N 40°38' W 074°08'0 0.0
2017-Nov-29 13:08N 40°38' W 074°08'0 0.1
2017-Nov-29 12:58N 40°38' W 074°08'0 0.0
2017-Nov-29 12:25N 40°38' W 074°08'0 0.0
2017-Nov-29 11:59N 40°38' W 074°08'2 4.5
2017-Nov-29 11:30N 40°39' W 074°11'1 1.5
2017-Nov-29 11:00N 40°38' W 074°11'1 2.0
2017-Nov-29 10:30N 40°39' W 074°10'3 5.4
2017-Nov-29 10:00N 40°39' W 074°07'1 1.6
2017-Nov-29 09:30N 40°38' W 074°08'0 0.0
2017-Nov-29 09:01N 40°38' W 074°08'0 0.0
2017-Nov-29 08:30N 40°38' W 074°08'0 0.0
2017-Nov-29 07:59N 40°38' W 074°08'0 0.0
2017-Nov-29 07:30N 40°38' W 074°08'0 0.0
2017-Nov-29 07:00N 40°38' W 074°08'0 0.0
2017-Nov-29 06:29N 40°38' W 074°08'0 0.0
2017-Nov-29 06:00N 40°38' W 074°08'0 0.0
2017-Nov-29 05:30N 40°38' W 074°08'0 0.0
2017-Nov-29 05:00N 40°38' W 074°08'0 0.0
2017-Nov-29 04:30N 40°38' W 074°08'0 0.0
2017-Nov-29 04:00N 40°38' W 074°08'0 0.0
2017-Nov-29 03:30N 40°38' W 074°08'0 0.1
2017-Nov-29 03:00N 40°38' W 074°08'0 0.1
2017-Nov-29 02:30N 40°39' W 074°08'0 0.2
2017-Nov-29 02:00N 40°38' W 074°08'0 0.0
2017-Nov-29 01:31N 40°38' W 074°08'0 0.0
2017-Nov-29 01:00N 40°38' W 074°08'0 0.0
2017-Nov-29 00:29N 40°38' W 074°08'0 0.0
2017-Nov-28 23:59N 40°38' W 074°08'0 0.0
2017-Nov-28 23:30N 40°38' W 074°08'0 0.0
2017-Nov-28 23:00N 40°38' W 074°08'0 0.0
2017-Nov-28 22:30N 40°38' W 074°08'0 0.0
2017-Nov-28 22:00N 40°38' W 074°08'0 0.0
2017-Nov-28 21:30N 40°38' W 074°08'0 0.0
2017-Nov-28 20:56N 40°38' W 074°08'0 0.0
2017-Nov-28 20:30N 40°38' W 074°08'0 0.0
2017-Nov-28 20:00N 40°38' W 074°08'0 0.0
2017-Nov-28 19:30N 40°38' W 074°08'0 0.0
2017-Nov-28 19:00N 40°38' W 074°08'0 0.0
2017-Nov-28 18:31N 40°38' W 074°08'4 7.5
2017-Nov-28 18:00N 40°40' W 074°03'2 3.3
2017-Nov-28 17:30N 40°40' W 074°01'1 1.8
2017-Nov-28 17:00N 40°41' W 074°01'5 9.5
2017-Nov-28 16:31N 40°45' W 073°58'4 7.5
2017-Nov-28 15:58N 40°48' W 073°54'5 5.7
2017-Nov-28 15:00N 40°43' W 073°58'4 7.6
2017-Nov-28 14:30N 40°41' W 074°01'  

Dump ship's entire track history